Boulia, Australia
Current Conditions -  °F | °C
As of 10:00 PM on Saturday 25 Oct 2014 (Local Time) from YBMA Reporting Station
Clear Clear  
Wind Chill: 75°   Ceiling: Unl
Heat Index: 75°   Visibility: 6mi
Dew Point: 37°   Wind: 0mph
Humidity: 25%   Direction: NA
Pressure: 30"   Gusts: NA
Location:  22.91°S, 139.91°E
Report Text: YBMA 251200Z AUTO 00000KT 9999 // NCD 24/03 Q1016
Loading
Personal Weather Stations






























Interactive Weather Map
Tropical Storm Tracking
New forecast layout! Learn more

10-Day Weather Forecast

Advertisements
Track Severe Weather on mobile